Wednesday, October 18, 2017, 3:38 AM EDT
Back to Local

KTTN, Trenton Mercer County Airport

Location: Trenton, NJ, United States Lat: 40.283
Local Time: 3:38 AM EDT ( 7:38 GMT) Lon: -74.817
Time Zone: US/Eastern Elev: 213 ft

Show me the last for .
Show Decoded

2017-10-18 02:53 METAR KTTN 180653Z AUTO 00000KT 10SM CLR 06/03 A3030 RMK AO2 SLP256 T00560033 =
2017-10-18 01:53 METAR KTTN 180553Z AUTO 00000KT 10SM CLR 06/03 A3031 RMK AO2 SLP257 T00610028
                 10117 20061 53001 =
2017-10-18 00:53 METAR KTTN 180453Z AUTO 00000KT 10SM CLR 07/03 A3031 RMK AO2 SLP257 T00720033
                 401610028 =
2017-10-17 23:53 METAR KTTN 180353Z AUTO 00000KT 10SM CLR 07/03 A3031 RMK AO2 SLP256 T00670028 =
2017-10-17 22:53 METAR KTTN 180253Z AUTO 24003KT 10SM CLR 09/03 A3031 RMK AO2 SLP256 T00890033
                 52007 =
2017-10-17 21:53 METAR KTTN 180153Z 23004KT 10SM CLR 09/03 A3030 RMK AO2 SLP254 T00940028 =
2017-10-17 20:53 METAR KTTN 180053Z 23003KT 10SM CLR 11/02 A3029 RMK AO2 SLP252 T01060022 =
2017-10-17 19:53 METAR KTTN 172353Z 17004KT 10SM CLR 08/03 A3028 RMK AO2 SLP250 T00830028 10161
                 20083 53008 =
2017-10-17 18:53 METAR KTTN 172253Z 23003KT 10SM CLR 13/01 A3027 RMK AO2 SLP245 T01280011 =
2017-10-17 17:53 METAR KTTN 172153Z 23005KT 10SM CLR 14/01 A3026 RMK AO2 SLP243 T01390011 =
2017-10-17 16:53 METAR KTTN 172053Z 32003KT 10SM CLR 16/01 A3026 RMK AO2 SLP241 T01560006 56012 =
2017-10-17 15:53 METAR KTTN 171953Z 27006KT 10SM CLR 16/01 A3027 RMK AO2 SLP245 T01560011 =
2017-10-17 14:53 METAR KTTN 171853Z 25006KT 10SM CLR 15/02 A3028 RMK AO2 SLP246 T01500017 =
2017-10-17 13:53 METAR KTTN 171753Z 29005KT 10SM CLR 14/02 A3029 RMK AO2 SLP253 T01440017 10144
                 20044 58020 =
2017-10-17 12:53 METAR KTTN 171653Z VRB04KT 10SM CLR 12/01 A3031 RMK AO2 SLP259 T01220011 =
2017-10-17 11:53 METAR KTTN 171553Z 30006KT 10SM CLR 12/01 A3034 RMK AO2 SLP268 T01170011 =
2017-10-17 10:53 METAR KTTN 171453Z 04005KT 10SM CLR 10/01 A3035 RMK AO2 SLP273 T01000011 50007 =
2017-10-17 09:53 METAR KTTN 171353Z VRB04KT 10SM CLR 09/02 A3036 RMK AO2 SLP275 T00890017 =
2017-10-17 08:53 METAR KTTN 171253Z 36004KT 10SM CLR 07/01 A3035 RMK AO2 SLP274 T00670011 =
2017-10-17 07:53 METAR KTTN 171153Z 34005KT 10SM CLR 04/00 A3033 RMK AO2 SLP266 T00440000 10061
                 20028 51018 =
2017-10-17 06:53 METAR KTTN 171053Z 34005KT 10SM CLR 03/00 A3032 RMK AO2 SLP262 T00330000 =
2017-10-17 05:53 METAR KTTN 170953Z 32004KT 10SM CLR 03/00 A3030 RMK AO2 SLP256 T00330000 =
2017-10-17 04:53 METAR KTTN 170853Z AUTO 33003KT 10SM CLR 04/00 A3028 RMK AO2 SLP247 T00390000
                 53008 =
2017-10-17 03:53 METAR KTTN 170753Z AUTO 34005KT 10SM CLR 04/00 A3026 RMK AO2 SLP241 T00390000 =

Support USWX by starting your Amazon purchase here.